Time;durP1;ratioP1;P1;durP2;ratioP2;P2;SDS_P1;SDS_P2;PMS_P1;PMS_P2;Temp;Humidity;BMP_temperature;BMP_pressure;BME280_temperature;BME280_humidity;BME280_pressure;Samples;Min_cycle;Max_cycle;Signal;HPM_P1;HPM_P2
2024/02/02 00:00:33;;;;;;;5.80;3.05;;;0.70;99.90;;;;;;5032191;28;20553;-78
2024/02/02 00:02:59;;;;;;;11.13;3.15;;;0.70;99.90;;;;;;5047704;28;20044;-78
2024/02/02 00:05:25;;;;;;;9.65;3.53;;;0.70;99.90;;;;;;5029417;28;20620;-77
2024/02/02 00:07:51;;;;;;;10.80;3.17;;;0.70;99.90;;;;;;5032353;28;20026;-78
2024/02/02 00:10:17;;;;;;;16.50;3.78;;;0.60;99.90;;;;;;5047463;28;20111;-77
2024/02/02 00:12:42;;;;;;;14.10;3.78;;;0.60;99.90;;;;;;5032089;28;20053;-78
2024/02/02 00:15:09;;;;;;;7.15;3.63;;;0.50;99.90;;;;;;5045372;28;20124;-78
2024/02/02 00:17:35;;;;;;;11.75;4.15;;;0.50;99.90;;;;;;5030194;28;20071;-77
2024/02/02 00:20:01;;;;;;;9.52;3.20;;;0.40;99.90;;;;;;5032360;28;20042;-78
2024/02/02 00:22:26;;;;;;;9.38;3.15;;;0.40;99.90;;;;;;5031805;28;20112;-78
2024/02/02 00:24:52;;;;;;;15.10;4.30;;;0.40;99.90;;;;;;5031615;28;20474;-77
2024/02/02 00:27:18;;;;;;;10.57;3.53;;;0.40;99.90;;;;;;5031257;28;20076;-78
2024/02/02 00:29:45;;;;;;;13.68;3.88;;;0.40;99.90;;;;;;5032307;28;20036;-77
2024/02/02 00:32:15;;;;;;;6.22;3.47;;;0.40;99.90;;;;;;5031869;28;20125;-78
2024/02/02 00:34:41;;;;;;;9.05;4.03;;;0.30;99.90;;;;;;5025467;28;20100;-77
2024/02/02 00:37:07;;;;;;;10.68;4.20;;;0.30;99.90;;;;;;5043106;28;20577;-78
2024/02/02 00:39:33;;;;;;;9.68;4.28;;;0.30;99.90;;;;;;5031938;28;20068;-78
2024/02/02 00:41:59;;;;;;;13.25;4.18;;;0.20;99.90;;;;;;5030518;28;20117;-78
2024/02/02 00:44:25;;;;;;;12.48;3.83;;;0.20;99.90;;;;;;5031777;28;20194;-78
2024/02/02 00:46:51;;;;;;;12.63;3.90;;;0.20;99.90;;;;;;5030334;28;20033;-77
2024/02/02 00:49:16;;;;;;;14.50;4.55;;;0.10;99.90;;;;;;5030567;28;20079;-78
2024/02/02 00:51:42;;;;;;;10.15;3.65;;;0.10;99.90;;;;;;5031621;28;20013;-78
2024/02/02 00:54:08;;;;;;;15.18;4.85;;;0.10;99.90;;;;;;5031598;28;20033;-77
2024/02/02 00:56:34;;;;;;;18.40;4.82;;;0.10;99.90;;;;;;5030616;28;20025;-78
2024/02/02 00:59:00;;;;;;;9.02;4.15;;;0.10;99.90;;;;;;5031825;28;20033;-78
2024/02/02 01:01:26;;;;;;;10.43;3.92;;;0.10;99.90;;;;;;5031662;28;20034;-77
2024/02/02 01:03:51;;;;;;;11.25;4.60;;;0.10;99.90;;;;;;5030276;28;20029;-78
2024/02/02 01:06:17;;;;;;;10.82;4.32;;;0.10;99.90;;;;;;5030787;28;20037;-77
2024/02/02 01:08:43;;;;;;;15.65;4.38;;;0.10;99.90;;;;;;5030677;28;20043;-77
2024/02/02 01:11:09;;;;;;;13.93;4.40;;;0.10;99.90;;;;;;5030042;28;20033;-78
2024/02/02 01:13:35;;;;;;;13.70;4.78;;;0.10;99.90;;;;;;5044994;28;20104;-77
2024/02/02 01:16:01;;;;;;;15.27;4.20;;;0.10;99.90;;;;;;5045551;28;20124;-78
2024/02/02 01:18:27;;;;;;;11.23;4.43;;;0.10;99.90;;;;;;5035833;28;20105;-78
2024/02/02 01:20:53;;;;;;;6.38;3.72;;;0.10;99.90;;;;;;5030554;28;20593;-77
2024/02/02 01:23:19;;;;;;;14.20;3.95;;;0.10;99.90;;;;;;5046453;28;20049;-78
2024/02/02 01:25:45;;;;;;;14.90;4.10;;;0.00;99.90;;;;;;5030634;28;20294;-78
2024/02/02 01:28:14;;;;;;;19.63;4.80;;;0.10;99.90;;;;;;5023385;28;20122;-78
2024/02/02 01:30:40;;;;;;;10.60;4.22;;;0.10;99.90;;;;;;5023080;28;20092;-78
2024/02/02 01:33:06;;;;;;;9.90;3.60;;;0.10;99.90;;;;;;5028603;28;20113;-77
2024/02/02 01:35:32;;;;;;;10.80;4.05;;;0.00;99.90;;;;;;5028539;28;20155;-77
2024/02/02 01:37:58;;;;;;;10.30;3.72;;;0.00;99.90;;;;;;5028769;28;20120;-78
2024/02/02 01:40:24;;;;;;;5.80;3.53;;;0.00;99.90;;;;;;5044781;28;20037;-78
2024/02/02 01:42:51;;;;;;;11.07;3.90;;;-0.10;99.90;;;;;;5043236;28;20091;-78
2024/02/02 01:45:16;;;;;;;13.40;4.00;;;-0.10;99.90;;;;;;5030514;28;20547;-78
2024/02/02 01:47:42;;;;;;;12.75;4.75;;;-0.10;99.90;;;;;;5031368;28;20037;-78
2024/02/02 01:50:08;;;;;;;10.80;4.00;;;-0.10;99.90;;;;;;5030883;28;20029;-78
2024/02/02 01:52:34;;;;;;;9.35;3.63;;;-0.10;99.90;;;;;;5030677;28;20108;-78
2024/02/02 01:55:01;;;;;;;8.88;3.45;;;-0.20;99.90;;;;;;5030168;28;20036;-78
2024/02/02 01:57:27;;;;;;;7.65;3.80;;;-0.20;99.90;;;;;;5027641;28;20056;-78
2024/02/02 01:59:53;;;;;;;7.70;3.90;;;-0.20;99.90;;;;;;5027778;28;20033;-78
2024/02/02 02:02:19;;;;;;;13.73;4.63;;;-0.20;99.90;;;;;;5026945;28;20029;-77
2024/02/02 02:04:44;;;;;;;8.48;4.05;;;-0.30;99.90;;;;;;5029873;28;20084;-78
2024/02/02 02:07:10;;;;;;;12.15;3.63;;;-0.30;99.90;;;;;;5044800;28;20033;-78
2024/02/02 02:09:36;;;;;;;9.45;3.85;;;-0.30;99.90;;;;;;5028915;28;20198;-78
2024/02/02 02:12:02;;;;;;;12.63;4.30;;;-0.30;99.90;;;;;;5028380;28;20033;-78
2024/02/02 02:14:29;;;;;;;9.02;3.90;;;-0.20;99.90;;;;;;5029970;28;20026;-78
2024/02/02 02:16:55;;;;;;;6.30;3.58;;;-0.20;99.90;;;;;;5024738;28;20048;-78
2024/02/02 02:19:21;;;;;;;8.68;4.18;;;-0.20;99.90;;;;;;5029831;28;20045;-77
2024/02/02 02:21:47;;;;;;;10.27;4.07;;;-0.20;99.90;;;;;;5029537;28;20403;-77
2024/02/02 02:24:13;;;;;;;8.43;3.92;;;-0.20;99.90;;;;;;5029930;28;20037;-78
2024/02/02 02:26:40;;;;;;;9.55;4.28;;;-0.20;99.90;;;;;;5027699;28;20033;-78
2024/02/02 02:29:06;;;;;;;16.75;5.18;;;-0.10;99.90;;;;;;5029672;28;20676;-78
2024/02/02 02:31:32;;;;;;;11.93;5.05;;;-0.10;99.90;;;;;;5029866;28;20060;-78
2024/02/02 02:33:58;;;;;;;8.35;3.97;;;-0.10;99.90;;;;;;5029849;28;20026;-77
2024/02/02 02:36:24;;;;;;;12.32;4.47;;;-0.10;99.90;;;;;;5028547;28;20450;-77
2024/02/02 02:38:50;;;;;;;18.98;5.15;;;0.00;99.90;;;;;;5029729;28;20029;-78
2024/02/02 02:41:16;;;;;;;11.30;5.50;;;0.00;99.90;;;;;;5029452;28;20048;-77
2024/02/02 02:43:45;;;;;;;13.98;4.82;;;0.00;99.90;;;;;;5029632;28;20033;-78
2024/02/02 02:46:11;;;;;;;13.35;4.93;;;0.00;99.90;;;;;;5026560;28;20666;-77
2024/02/02 02:48:37;;;;;;;25.77;5.97;;;0.00;99.90;;;;;;5020069;28;20055;-78
2024/02/02 02:51:03;;;;;;;15.55;6.13;;;0.00;99.90;;;;;;5028091;28;20029;-78
2024/02/02 02:53:30;;;;;;;17.50;6.38;;;0.10;99.90;;;;;;5033375;28;20116;-77
2024/02/02 02:55:56;;;;;;;16.35;6.50;;;0.10;99.90;;;;;;5032371;28;20032;-77
2024/02/02 02:58:22;;;;;;;112.53;11.40;;;0.10;99.90;;;;;;5033475;28;20079;-78
2024/02/02 03:00:48;;;;;;;22.10;7.00;;;0.20;99.90;;;;;;5032172;28;20030;-78
2024/02/02 03:03:14;;;;;;;11.57;6.35;;;0.20;99.90;;;;;;5033605;28;20032;-78
2024/02/02 03:05:40;;;;;;;15.32;6.75;;;0.20;99.90;;;;;;5025308;28;20029;-78
2024/02/02 03:08:07;;;;;;;13.27;5.78;;;0.30;99.90;;;;;;5051182;28;20037;-78
2024/02/02 03:10:33;;;;;;;14.82;6.82;;;0.30;99.90;;;;;;5032967;28;20024;-77
2024/02/02 03:12:59;;;;;;;20.98;7.03;;;0.30;99.90;;;;;;5033386;28;20456;-78
2024/02/02 03:15:26;;;;;;;12.75;6.55;;;0.30;99.90;;;;;;5032108;28;20113;-77
2024/02/02 03:17:52;;;;;;;15.90;7.05;;;0.30;99.90;;;;;;5033162;28;20508;-78
2024/02/02 03:20:17;;;;;;;17.20;7.50;;;0.30;99.90;;;;;;5032893;28;20124;-78
2024/02/02 03:22:44;;;;;;;23.98;8.25;;;0.40;99.90;;;;;;5032922;28;20037;-78
2024/02/02 03:25:11;;;;;;;23.95;7.75;;;0.40;99.90;;;;;;5032450;28;20056;-78
2024/02/02 03:27:37;;;;;;;18.95;7.85;;;0.40;99.90;;;;;;5032251;28;20029;-78
2024/02/02 03:30:03;;;;;;;18.27;7.97;;;0.40;99.90;;;;;;5033078;28;20458;-78
2024/02/02 03:32:29;;;;;;;16.45;6.93;;;0.40;99.90;;;;;;5032709;28;20048;-78
2024/02/02 03:34:55;;;;;;;18.35;7.40;;;0.40;99.90;;;;;;5031051;28;20106;-77
2024/02/02 03:37:21;;;;;;;18.98;7.53;;;0.30;99.90;;;;;;5030865;28;20025;-78
2024/02/02 03:39:47;;;;;;;16.42;7.00;;;0.30;99.90;;;;;;5033028;28;20794;-78
2024/02/02 03:42:13;;;;;;;12.77;6.93;;;0.30;99.90;;;;;;5032266;28;20048;-78
2024/02/02 03:44:39;;;;;;;21.58;7.03;;;0.30;99.90;;;;;;5031816;28;20037;-78
2024/02/02 03:47:05;;;;;;;18.63;7.55;;;0.30;99.90;;;;;;5030618;28;20525;-78
2024/02/02 03:49:33;;;;;;;16.42;7.05;;;0.30;99.90;;;;;;5035133;28;20041;-78
2024/02/02 03:52:07;;;;;;;15.45;6.70;;;0.20;99.90;;;;;;5032046;28;20499;-78
2024/02/02 03:54:33;;;;;;;13.82;7.07;;;0.20;99.90;;;;;;5031360;28;20045;-78
2024/02/02 03:57:00;;;;;;;14.48;7.38;;;0.20;99.90;;;;;;5031831;28;20061;-78
2024/02/02 03:59:27;;;;;;;22.52;7.63;;;0.10;99.90;;;;;;5029204;28;20080;-77
2024/02/02 04:01:52;;;;;;;14.60;7.30;;;0.10;99.90;;;;;;5031543;28;20731;-77
2024/02/02 04:04:18;;;;;;;13.50;7.53;;;0.00;99.90;;;;;;5031057;28;20036;-78
2024/02/02 04:06:44;;;;;;;10.15;5.53;;;0.00;99.90;;;;;;5031407;28;20069;-78
2024/02/02 04:09:10;;;;;;;8.77;5.30;;;0.00;99.90;;;;;;5030835;28;20397;-77
2024/02/02 04:11:37;;;;;;;15.23;5.80;;;-0.10;99.90;;;;;;5047204;28;20037;-77
2024/02/02 04:14:05;;;;;;;18.25;5.15;;;-0.10;99.90;;;;;;5031418;28;20044;-78
2024/02/02 04:16:31;;;;;;;49.17;6.25;;;-0.10;99.90;;;;;;5029605;28;20108;-78
2024/02/02 04:18:58;;;;;;;37.88;6.13;;;-0.10;99.90;;;;;;5030779;28;20120;-77
2024/02/02 04:21:24;;;;;;;9.38;4.72;;;-0.20;99.90;;;;;;5031385;28;20037;-78
2024/02/02 04:23:50;;;;;;;28.30;5.97;;;-0.20;99.90;;;;;;5032087;28;20052;-78
2024/02/02 04:26:15;;;;;;;16.27;6.35;;;-0.20;99.90;;;;;;5030824;28;20076;-78
2024/02/02 04:28:41;;;;;;;13.95;6.47;;;-0.20;99.90;;;;;;5031995;28;20040;-77
2024/02/02 04:31:07;;;;;;;16.33;6.95;;;-0.20;99.90;;;;;;5029662;28;20021;-77
2024/02/02 04:33:33;;;;;;;14.90;7.55;;;-0.20;99.90;;;;;;5028933;28;20504;-77
2024/02/02 04:35:58;;;;;;;20.20;8.20;;;-0.20;99.90;;;;;;5028648;28;20409;-77
2024/02/02 04:38:24;;;;;;;26.25;8.60;;;-0.20;99.90;;;;;;5030911;28;20108;-77
2024/02/02 04:40:50;;;;;;;50.97;9.13;;;-0.20;99.90;;;;;;5030883;28;20034;-77
2024/02/02 04:43:16;;;;;;;19.92;8.13;;;-0.20;99.90;;;;;;5030425;28;20037;-78
2024/02/02 04:45:42;;;;;;;15.10;8.20;;;-0.10;99.90;;;;;;5023800;28;20596;-77
2024/02/02 04:48:08;;;;;;;17.52;7.93;;;-0.10;99.90;;;;;;5030645;28;20124;-77
2024/02/02 04:50:34;;;;;;;25.83;7.38;;;-0.10;99.90;;;;;;5030393;28;20482;-77
2024/02/02 04:53:00;;;;;;;21.05;8.20;;;-0.10;99.90;;;;;;5028868;28;20021;-77
2024/02/02 04:55:26;;;;;;;17.65;7.55;;;-0.10;99.90;;;;;;5032915;28;20163;-77
2024/02/02 04:57:52;;;;;;;21.48;8.25;;;-0.10;99.90;;;;;;5021941;28;20342;-78
2024/02/02 05:00:18;;;;;;;20.60;7.32;;;-0.10;99.90;;;;;;5019988;28;20120;-78
2024/02/02 05:02:44;;;;;;;19.40;8.02;;;-0.10;99.90;;;;;;5032739;28;20033;-78
2024/02/02 05:05:10;;;;;;;27.10;9.48;;;0.00;99.90;;;;;;5029276;28;20048;-78
2024/02/02 05:07:36;;;;;;;21.88;9.00;;;0.00;99.90;;;;;;5032144;28;20080;-78
2024/02/02 05:10:05;;;;;;;29.55;9.38;;;0.10;99.90;;;;;;5029673;28;20033;-78
2024/02/02 05:12:32;;;;;;;25.80;9.38;;;0.10;99.90;;;;;;5031837;28;20371;-78
2024/02/02 05:14:58;;;;;;;29.08;9.95;;;0.10;99.90;;;;;;5037651;28;20029;-78
2024/02/02 05:17:24;;;;;;;22.17;9.30;;;0.20;99.90;;;;;;5031593;28;20045;-78
2024/02/02 05:19:50;;;;;;;23.88;8.77;;;0.20;99.90;;;;;;5032477;28;20025;-78
2024/02/02 05:22:15;;;;;;;21.98;9.30;;;0.30;99.90;;;;;;5030850;28;20041;-78
2024/02/02 05:24:41;;;;;;;27.67;9.20;;;0.30;99.90;;;;;;5030153;28;20025;-78
2024/02/02 05:27:07;;;;;;;22.00;8.90;;;0.30;99.90;;;;;;5028663;28;20489;-78
2024/02/02 05:29:33;;;;;;;23.05;8.43;;;0.40;99.90;;;;;;5030483;28;20036;-78
2024/02/02 05:31:59;;;;;;;18.77;8.30;;;0.40;99.90;;;;;;5025067;28;20083;-78
2024/02/02 05:34:24;;;;;;;28.50;9.40;;;0.40;99.90;;;;;;5026599;28;20024;-78
2024/02/02 05:36:50;;;;;;;30.05;9.00;;;0.40;99.90;;;;;;5028165;28;20416;-78
2024/02/02 05:39:16;;;;;;;20.10;8.23;;;0.40;99.90;;;;;;5022358;28;20033;-78
2024/02/02 05:41:42;;;;;;;21.65;8.80;;;0.40;99.90;;;;;;5029012;28;20034;-78
2024/02/02 05:44:07;;;;;;;25.67;8.75;;;0.40;99.90;;;;;;5029221;28;20120;-78
2024/02/02 05:46:33;;;;;;;17.25;7.43;;;0.40;99.90;;;;;;5028871;28;20029;-78
2024/02/02 05:48:59;;;;;;;14.73;7.95;;;0.50;99.90;;;;;;5030560;28;20037;-78
2024/02/02 05:51:25;;;;;;;14.95;6.93;;;0.50;99.90;;;;;;5025786;28;20108;-78
2024/02/02 05:53:50;;;;;;;26.08;7.93;;;0.50;99.90;;;;;;5027658;28;20036;-78
2024/02/02 05:56:16;;;;;;;19.92;7.80;;;0.50;99.90;;;;;;5027635;28;20084;-78
2024/02/02 05:58:42;;;;;;;24.45;8.38;;;0.50;99.90;;;;;;5038195;28;20037;-77
2024/02/02 06:01:08;;;;;;;15.60;7.43;;;0.50;99.90;;;;;;5022641;28;20034;-78
2024/02/02 06:03:33;;;;;;;22.17;7.57;;;0.50;99.90;;;;;;5028227;28;20045;-77
2024/02/02 06:05:59;;;;;;;15.25;7.18;;;0.50;99.90;;;;;;5026278;28;20045;-78
2024/02/02 06:08:25;;;;;;;13.82;6.90;;;0.60;99.90;;;;;;5012384;28;20404;-78
2024/02/02 06:10:51;;;;;;;18.23;5.85;;;0.60;99.90;;;;;;5031024;28;20049;-78
2024/02/02 06:13:17;;;;;;;12.25;5.88;;;0.60;99.90;;;;;;5030001;28;20516;-78
2024/02/02 06:15:43;;;;;;;22.88;7.88;;;0.60;99.90;;;;;;5023546;28;20109;-78
2024/02/02 06:18:09;;;;;;;15.63;6.80;;;0.60;99.90;;;;;;5029431;28;20099;-78
2024/02/02 06:20:35;;;;;;;14.63;7.00;;;0.60;99.90;;;;;;5029363;28;20037;-78
2024/02/02 06:23:00;;;;;;;17.40;6.80;;;0.60;99.90;;;;;;5030007;28;20041;-78
2024/02/02 06:25:26;;;;;;;21.67;7.18;;;0.60;99.90;;;;;;5027993;28;20040;-78
2024/02/02 06:27:52;;;;;;;19.23;8.48;;;0.60;99.90;;;;;;5028731;28;20029;-78
2024/02/02 06:30:18;;;;;;;19.63;9.63;;;0.60;99.90;;;;;;5026944;28;20037;-78
2024/02/02 06:32:48;;;;;;;18.95;8.68;;;0.60;99.90;;;;;;5030106;28;20021;-77
2024/02/02 06:35:15;;;;;;;21.48;7.28;;;0.60;99.90;;;;;;5024631;28;20034;-77
2024/02/02 06:37:41;;;;;;;24.38;8.88;;;0.70;99.90;;;;;;5024911;28;20767;-78
2024/02/02 06:40:07;;;;;;;22.52;8.65;;;0.70;99.90;;;;;;5024111;28;20133;-77
2024/02/02 06:42:33;;;;;;;29.90;8.85;;;0.70;99.90;;;;;;5026282;28;20029;-77
2024/02/02 06:44:59;;;;;;;25.17;8.52;;;0.70;99.90;;;;;;5025333;28;20506;-77
2024/02/02 06:47:25;;;;;;;30.55;9.40;;;0.70;99.90;;;;;;5020919;28;20037;-77
2024/02/02 06:49:51;;;;;;;32.97;9.77;;;0.70;99.90;;;;;;5023961;28;20154;-78
2024/02/02 06:52:17;;;;;;;24.17;9.93;;;0.70;99.90;;;;;;5030593;28;20160;-77
2024/02/02 06:54:43;;;;;;;37.45;10.48;;;0.80;99.90;;;;;;5021006;28;20034;-77
2024/02/02 06:57:09;;;;;;;27.83;9.40;;;0.80;99.90;;;;;;5014635;28;20021;-78
2024/02/02 06:59:36;;;;;;;31.35;9.93;;;0.90;99.90;;;;;;5036172;28;20083;-77
2024/02/02 07:02:16;;;;;;;25.75;9.55;;;0.80;99.90;;;;;;5024674;28;20041;-77
2024/02/02 07:04:42;;;;;;;26.52;9.63;;;0.80;99.90;;;;;;5056287;28;20021;-77
2024/02/02 07:07:08;;;;;;;23.85;9.48;;;0.90;99.90;;;;;;5021078;28;20482;-78
2024/02/02 07:09:34;;;;;;;23.70;9.25;;;0.80;99.90;;;;;;5026228;28;20034;-78
2024/02/02 07:12:10;;;;;;;27.55;9.73;;;0.90;99.90;;;;;;5031051;28;20033;-78
2024/02/02 07:14:49;;;;;;;26.90;9.20;;;0.90;99.90;;;;;;5059412;28;20496;-77
2024/02/02 07:17:32;;;;;;;32.90;9.70;;;0.90;99.90;;;;;;5026706;28;20033;-78
2024/02/02 07:19:57;;;;;;;30.65;8.85;;;1.00;99.90;;;;;;5027831;28;20032;-78
2024/02/02 07:22:40;;;;;;;25.50;10.13;;;0.90;99.90;;;;;;5044248;28;21033;-78
2024/02/02 07:25:25;;;;;;;32.17;8.95;;;1.00;99.90;;;;;;5025898;28;20030;-78
2024/02/02 07:28:07;;;;;;;21.40;9.13;;;1.00;99.90;;;;;;5055457;28;20076;-78
2024/02/02 07:30:54;;;;;;;30.80;8.88;;;1.10;99.90;;;;;;5028407;28;20644;-78
2024/02/02 07:33:35;;;;;;;29.60;9.40;;;1.10;99.90;;;;;;5029547;28;20036;-78
2024/02/02 07:36:01;;;;;;;30.25;10.15;;;1.10;99.90;;;;;;5023871;28;20026;-78
2024/02/02 07:38:46;;;;;;;29.08;9.25;;;1.20;99.90;;;;;;5030892;28;20030;-78
2024/02/02 07:41:16;;;;;;;27.95;8.50;;;1.20;99.90;;;;;;5032878;28;20049;-78
2024/02/02 07:43:42;;;;;;;25.63;8.50;;;1.20;99.90;;;;;;5036904;28;20029;-77
2024/02/02 07:46:08;;;;;;;25.85;9.13;;;1.20;99.90;;;;;;5028486;28;20029;-78
2024/02/02 07:48:35;;;;;;;32.30;9.70;;;1.30;99.90;;;;;;5032832;28;20037;-78
2024/02/02 07:51:01;;;;;;;29.02;9.30;;;1.40;99.90;;;;;;5033054;28;20110;-78
2024/02/02 07:53:29;;;;;;;33.50;9.68;;;1.40;99.90;;;;;;5032997;28;20033;-79
2024/02/02 07:55:55;;;;;;;36.00;9.52;;;1.50;99.90;;;;;;5031544;28;20482;-78
2024/02/02 07:58:20;;;;;;;34.90;9.10;;;1.60;99.90;;;;;;5031898;28;20064;-78
2024/02/02 08:00:50;;;;;;;33.47;9.02;;;1.70;99.90;;;;;;5008887;28;20030;-78
2024/02/02 08:03:16;;;;;;;27.08;8.98;;;1.80;99.90;;;;;;5033247;28;20509;-78
2024/02/02 08:05:42;;;;;;;30.77;9.82;;;1.80;99.90;;;;;;5030911;28;20022;-78
2024/02/02 08:08:08;;;;;;;34.20;9.75;;;1.90;99.90;;;;;;5033364;28;20039;-79
2024/02/02 08:10:34;;;;;;;30.15;9.25;;;2.00;99.90;;;;;;5033233;28;20048;-79
2024/02/02 08:13:00;;;;;;;32.90;8.82;;;1.90;99.90;;;;;;5033565;28;20105;-78
2024/02/02 08:15:26;;;;;;;27.77;8.55;;;1.90;99.90;;;;;;5032006;28;20048;-79
2024/02/02 08:17:52;;;;;;;24.20;8.63;;;1.80;99.90;;;;;;5032452;28;20100;-78
2024/02/02 08:20:18;;;;;;;32.63;9.20;;;1.80;99.90;;;;;;5028426;28;20616;-79
2024/02/02 08:22:48;;;;;;;29.63;9.15;;;1.80;99.90;;;;;;5030678;28;20041;-79
2024/02/02 08:25:14;;;;;;;33.22;10.25;;;1.80;99.90;;;;;;5033037;28;20021;-79
2024/02/02 08:27:40;;;;;;;32.35;9.52;;;1.80;99.90;;;;;;5032943;28;20348;-78
2024/02/02 08:30:11;;;;;;;23.55;8.13;;;1.90;99.90;;;;;;5013835;28;20153;-79
2024/02/02 08:32:38;;;;;;;32.13;9.23;;;2.00;99.90;;;;;;5017114;28;20487;-79
2024/02/02 08:35:07;;;;;;;28.08;9.55;;;2.00;99.90;;;;;;5034790;28;20032;-79
2024/02/02 08:37:33;;;;;;;26.40;8.63;;;2.10;99.90;;;;;;5032666;28;20045;-79
2024/02/02 08:39:59;;;;;;;20.40;8.80;;;2.10;99.90;;;;;;5038689;28;20029;-79
2024/02/02 08:42:25;;;;;;;28.67;9.52;;;2.20;99.90;;;;;;5037195;28;20075;-80
2024/02/02 08:44:53;;;;;;;25.23;9.20;;;2.20;99.90;;;;;;5015684;28;20061;-80
2024/02/02 08:47:20;;;;;;;31.35;8.98;;;2.20;99.90;;;;;;5016021;28;20037;-79
2024/02/02 08:49:53;;;;;;;20.92;8.32;;;2.20;99.90;;;;;;5017022;28;20037;-79
2024/02/02 08:52:43;;;;;;;27.83;7.88;;;2.20;99.90;;;;;;5033714;28;20057;-79
2024/02/02 08:55:44;;;;;;;26.88;8.60;;;2.20;99.90;;;;;;5035868;28;20029;-79
2024/02/02 08:58:27;;;;;;;31.13;8.65;;;2.30;99.90;;;;;;5029868;28;20060;-79
2024/02/02 09:00:54;;;;;;;31.88;8.93;;;2.20;99.90;;;;;;5034157;28;20025;-79
2024/02/02 09:03:35;;;;;;;29.70;8.82;;;2.30;99.90;;;;;;5033829;28;20524;-80
2024/02/02 09:06:07;;;;;;;20.55;8.20;;;2.30;99.90;;;;;;5028771;28;20430;-79
2024/02/02 09:08:39;;;;;;;28.40;8.15;;;2.30;99.90;;;;;;5031263;28;20034;-79
2024/02/02 09:11:10;;;;;;;23.52;8.25;;;2.30;99.90;;;;;;5032924;28;20026;-79
2024/02/02 09:13:40;;;;;;;27.10;8.10;;;2.30;99.90;;;;;;5030147;28;21319;-79
2024/02/02 09:16:09;;;;;;;23.33;7.97;;;2.30;99.90;;;;;;5041131;28;20042;-79
2024/02/02 09:18:37;;;;;;;26.38;8.32;;;2.40;99.90;;;;;;5029024;28;20182;-80
2024/02/02 09:21:07;;;;;;;26.20;7.78;;;2.50;99.90;;;;;;5031262;28;20041;-80
2024/02/02 09:23:35;;;;;;;25.98;7.43;;;2.50;99.90;;;;;;5014120;28;20037;-79
2024/02/02 09:26:15;;;;;;;28.38;8.15;;;2.50;99.90;;;;;;5030440;28;20104;-80
2024/02/02 09:28:45;;;;;;;25.20;7.53;;;2.60;99.90;;;;;;5042031;28;20099;-79
2024/02/02 09:31:21;;;;;;;20.25;7.40;;;2.60;99.90;;;;;;5031568;28;20709;-80
2024/02/02 09:33:51;;;;;;;26.42;7.38;;;2.70;99.90;;;;;;5009459;28;20084;-80
2024/02/02 09:36:21;;;;;;;23.95;7.50;;;2.70;99.90;;;;;;5040683;28;20040;-79
2024/02/02 09:39:00;;;;;;;23.90;7.47;;;2.70;99.90;;;;;;5028153;28;20440;-79
2024/02/02 09:41:47;;;;;;;30.20;7.75;;;2.80;99.90;;;;;;5030609;28;20029;-79
2024/02/02 09:44:43;;;;;;;19.95;7.80;;;2.80;99.90;;;;;;5032173;28;20071;-80
2024/02/02 09:47:28;;;;;;;22.55;7.10;;;2.80;99.90;;;;;;5026595;28;20044;-80
2024/02/02 09:50:04;;;;;;;30.13;6.90;;;2.90;99.90;;;;;;5029450;28;20099;-80
2024/02/02 09:52:42;;;;;;;26.65;7.35;;;3.00;99.90;;;;;;5031195;28;20037;-80
2024/02/02 09:55:55;;;;;;;25.60;7.70;;;3.00;99.90;;;;;;5030766;28;20029;-80
2024/02/02 09:58:35;;;;;;;17.70;7.32;;;3.10;99.90;;;;;;5009308;28;20482;-80
2024/02/02 10:01:17;;;;;;;25.75;8.10;;;3.20;99.90;;;;;;5041867;28;20474;-80
2024/02/02 10:04:12;;;;;;;25.02;8.00;;;3.30;99.90;;;;;;5031864;28;20628;-80
2024/02/02 10:06:47;;;;;;;40.90;9.48;;;3.30;99.90;;;;;;5024373;28;20037;-80
2024/02/02 10:09:47;;;;;;;29.73;8.52;;;3.30;99.90;;;;;;5033024;28;20034;-82
2024/02/02 10:12:26;;;;;;;25.73;7.25;;;3.30;99.90;;;;;;5010042;28;20033;-81
2024/02/02 10:15:26;;;;;;;22.52;7.43;;;3.40;99.90;;;;;;5027692;28;20030;-81
2024/02/02 10:18:22;;;;;;;21.13;7.80;;;3.60;99.90;;;;;;5024243;28;20502;-80
2024/02/02 10:21:05;;;;;;;22.02;6.68;;;3.80;99.90;;;;;;5032190;28;20497;-80
2024/02/02 10:23:46;;;;;;;24.55;7.30;;;3.90;99.90;;;;;;5032752;28;20087;-80
2024/02/02 10:26:24;;;;;;;19.38;6.82;;;4.00;99.90;;;;;;5032389;28;20026;-80
2024/02/02 10:29:15;;;;;;;19.58;6.60;;;4.00;99.90;;;;;;5015489;28;20029;-81
2024/02/02 10:32:05;;;;;;;18.98;6.15;;;3.80;99.90;;;;;;5026139;28;20029;-80
2024/02/02 10:34:49;;;;;;;14.60;6.40;;;3.90;99.90;;;;;;5028188;28;20026;-80
2024/02/02 10:37:27;;;;;;;19.70;6.45;;;3.80;99.90;;;;;;5032865;22;20125;-77
2024/02/02 10:40:26;;;;;;;20.33;6.90;;;4.00;99.90;;;;;;5040080;28;20445;-76
2024/02/02 10:43:36;;;;;;;16.55;5.47;;;3.90;99.90;;;;;;5006685;28;20488;-77
2024/02/02 10:46:07;;;;;;;16.25;6.30;;;3.90;99.90;;;;;;5009277;28;20034;-77
2024/02/02 10:48:51;;;;;;;21.63;7.47;;;4.00;99.90;;;;;;5008636;28;20500;-77
2024/02/02 10:51:32;;;;;;;22.02;6.75;;;3.90;99.90;;;;;;4990393;28;20037;-77
2024/02/02 10:54:03;;;;;;;15.52;5.75;;;4.00;99.90;;;;;;4998330;28;20046;-77
2024/02/02 10:56:48;;;;;;;17.63;6.03;;;4.00;99.90;;;;;;5004352;28;20038;-78
2024/02/02 10:59:52;;;;;;;15.07;6.15;;;4.00;99.90;;;;;;5005013;28;20026;-77
2024/02/02 11:02:46;;;;;;;17.45;6.55;;;4.10;99.90;;;;;;4997639;28;20128;-77
2024/02/02 11:05:43;;;;;;;13.30;5.50;;;4.10;99.90;;;;;;5004459;28;20099;-77
2024/02/02 11:08:18;;;;;;;15.02;5.93;;;4.20;99.90;;;;;;5002163;28;20124;-77
2024/02/02 11:11:03;;;;;;;16.63;6.60;;;4.30;99.90;;;;;;5001081;28;20037;-77
2024/02/02 11:13:38;;;;;;;17.35;7.03;;;4.20;99.90;;;;;;5010877;28;20029;-77
2024/02/02 11:16:06;;;;;;;16.73;6.17;;;4.30;99.90;;;;;;5012010;28;20204;-77
2024/02/02 11:18:51;;;;;;;25.30;8.50;;;4.30;99.90;;;;;;5003625;28;20487;-77
2024/02/02 11:21:22;;;;;;;13.00;6.80;;;4.20;99.90;;;;;;5002887;28;20026;-77
2024/02/02 11:24:09;;;;;;;23.85;6.65;;;4.10;99.90;;;;;;5008607;28;20049;-77
2024/02/02 11:27:00;;;;;;;18.40;5.93;;;4.10;99.90;;;;;;5009861;28;20033;-77
2024/02/02 11:29:53;;;;;;;20.33;8.25;;;4.20;99.90;;;;;;5027233;28;20597;-77
2024/02/02 11:32:25;;;;;;;18.13;7.28;;;4.10;99.90;;;;;;5002447;28;20034;-77
2024/02/02 11:35:13;;;;;;;15.45;7.07;;;4.10;99.90;;;;;;5004694;28;20916;-78
2024/02/02 11:37:57;;;;;;;22.05;7.80;;;4.10;99.90;;;;;;5022664;28;20096;-77
2024/02/02 11:40:25;;;;;;;19.05;8.07;;;4.10;99.90;;;;;;5004973;28;20053;-78
2024/02/02 11:42:57;;;;;;;23.00;8.70;;;4.10;99.90;;;;;;5005778;28;20110;-78
2024/02/02 11:45:27;;;;;;;19.48;9.20;;;4.10;99.90;;;;;;5005226;28;20871;-77
2024/02/02 11:48:04;;;;;;;18.90;8.23;;;4.10;99.90;;;;;;5002854;28;20112;-78
2024/02/02 11:50:51;;;;;;;18.58;8.95;;;4.10;99.90;;;;;;5013154;28;20473;-77
2024/02/02 11:53:28;;;;;;;23.02;9.70;;;4.10;99.90;;;;;;5010793;28;20025;-78
2024/02/02 11:56:03;;;;;;;21.00;9.20;;;4.10;99.90;;;;;;5008103;28;20117;-78
2024/02/02 11:58:31;;;;;;;21.00;9.65;;;4.10;99.90;;;;;;5015393;28;20048;-77
2024/02/02 12:01:39;;;;;;;19.95;9.88;;;4.10;99.90;;;;;;5006000;28;20414;-78
2024/02/02 12:04:44;;;;;;;19.23;10.27;;;4.00;99.90;;;;;;4989451;28;20136;-78
2024/02/02 12:07:42;;;;;;;26.10;11.20;;;4.10;99.90;;;;;;5004559;28;20072;-77
2024/02/02 12:10:15;;;;;;;22.10;10.40;;;4.10;99.90;;;;;;5006155;28;20065;-78
2024/02/02 12:12:45;;;;;;;23.50;11.45;;;4.20;99.90;;;;;;5006531;28;20030;-77
2024/02/02 12:15:11;;;;;;;26.02;11.98;;;4.20;99.90;;;;;;5002676;28;20026;-76
2024/02/02 12:17:38;;;;;;;27.52;12.25;;;4.30;99.90;;;;;;5004844;28;20040;-76
2024/02/02 12:20:08;;;;;;;26.80;11.70;;;4.30;99.90;;;;;;5008535;28;20088;-77
2024/02/02 12:22:35;;;;;;;28.40;12.18;;;4.40;99.90;;;;;;5005067;28;20538;-77
2024/02/02 12:25:09;;;;;;;25.20;11.75;;;4.40;99.90;;;;;;5006246;28;20045;-77
2024/02/02 12:27:35;;;;;;;25.00;12.77;;;4.60;99.90;;;;;;5007751;28;20030;-77
2024/02/02 12:30:02;;;;;;;25.65;12.52;;;4.60;99.90;;;;;;5007783;28;20026;-77
2024/02/02 12:32:28;;;;;;;23.90;12.13;;;4.60;99.90;;;;;;5008184;28;20730;-77
2024/02/02 12:34:53;;;;;;;24.73;11.20;;;4.70;99.90;;;;;;5007458;28;20043;-77
2024/02/02 12:37:19;;;;;;;21.23;12.55;;;4.80;99.90;;;;;;5006928;28;20033;-77
2024/02/02 12:39:49;;;;;;;28.55;13.23;;;4.80;99.90;;;;;;5009135;28;20030;-77
2024/02/02 12:42:16;;;;;;;26.92;12.43;;;4.90;99.90;;;;;;5009165;28;20449;-77
2024/02/02 12:44:42;;;;;;;21.85;11.63;;;4.90;99.90;;;;;;5006566;28;20440;-76
2024/02/02 12:47:08;;;;;;;20.42;12.35;;;4.90;99.90;;;;;;5004076;28;20034;-77
2024/02/02 12:49:36;;;;;;;27.52;11.45;;;5.00;99.90;;;;;;5002264;28;20021;-78
2024/02/02 12:52:05;;;;;;;27.05;12.95;;;5.00;99.90;;;;;;5012178;28;20022;-77
2024/02/02 12:54:31;;;;;;;23.25;12.30;;;5.00;99.90;;;;;;5011420;28;20026;-77
2024/02/02 12:56:57;;;;;;;25.50;11.85;;;5.00;99.90;;;;;;5002346;28;20050;-78
2024/02/02 12:59:23;;;;;;;23.83;12.57;;;5.10;99.90;;;;;;5002823;28;20497;-77
2024/02/02 13:01:50;;;;;;;25.23;12.85;;;5.10;99.90;;;;;;5002472;28;20030;-77